sensor_id;sensor_type;location;lat;lon;timestamp;temperature;humidity
22925;DHT22;11628;51.072;3.712;2022-07-17T00:00:41;20.20;78.90
22925;DHT22;11628;51.072;3.712;2022-07-17T00:03:13;20.30;79.60
22925;DHT22;11628;51.072;3.712;2022-07-17T00:05:41;20.20;79.60
22925;DHT22;11628;51.072;3.712;2022-07-17T00:08:08;20.20;80.30
22925;DHT22;11628;51.072;3.712;2022-07-17T00:10:35;20.10;80.70
22925;DHT22;11628;51.072;3.712;2022-07-17T00:13:02;20.10;81.00
22925;DHT22;11628;51.072;3.712;2022-07-17T00:15:28;20.00;81.20
22925;DHT22;11628;51.072;3.712;2022-07-17T00:17:54;20.00;81.40
22925;DHT22;11628;51.072;3.712;2022-07-17T00:20:22;20.10;81.50
22925;DHT22;11628;51.072;3.712;2022-07-17T00:22:54;20.20;81.40
22925;DHT22;11628;51.072;3.712;2022-07-17T00:25:25;20.20;81.20
22925;DHT22;11628;51.072;3.712;2022-07-17T00:27:50;20.10;81.00
22925;DHT22;11628;51.072;3.712;2022-07-17T00:30:17;20.10;81.20
22925;DHT22;11628;51.072;3.712;2022-07-17T00:32:43;20.00;81.50
22925;DHT22;11628;51.072;3.712;2022-07-17T00:35:09;19.80;81.90
22925;DHT22;11628;51.072;3.712;2022-07-17T00:37:44;19.70;82.20
22925;DHT22;11628;51.072;3.712;2022-07-17T00:40:12;19.60;82.70
22925;DHT22;11628;51.072;3.712;2022-07-17T00:42:39;19.60;82.90
22925;DHT22;11628;51.072;3.712;2022-07-17T00:45:09;19.60;82.60
22925;DHT22;11628;51.072;3.712;2022-07-17T00:48:01;19.60;82.60
22925;DHT22;11628;51.072;3.712;2022-07-17T00:50:38;19.70;82.70
22925;DHT22;11628;51.072;3.712;2022-07-17T00:53:05;19.70;82.80
22925;DHT22;11628;51.072;3.712;2022-07-17T00:55:31;19.60;83.00
22925;DHT22;11628;51.072;3.712;2022-07-17T00:58:01;19.70;83.10
22925;DHT22;11628;51.072;3.712;2022-07-17T01:00:28;19.60;83.30
22925;DHT22;11628;51.072;3.712;2022-07-17T01:02:54;19.60;83.60
22925;DHT22;11628;51.072;3.712;2022-07-17T01:05:23;19.50;83.70
22925;DHT22;11628;51.072;3.712;2022-07-17T01:07:52;19.30;84.20
22925;DHT22;11628;51.072;3.712;2022-07-17T01:10:19;19.10;84.80
22925;DHT22;11628;51.072;3.712;2022-07-17T01:12:46;19.10;85.30
22925;DHT22;11628;51.072;3.712;2022-07-17T01:15:12;19.00;85.70
22925;DHT22;11628;51.072;3.712;2022-07-17T01:17:38;18.90;86.00
22925;DHT22;11628;51.072;3.712;2022-07-17T01:20:06;18.90;86.40
22925;DHT22;11628;51.072;3.712;2022-07-17T01:22:38;18.80;86.80
22925;DHT22;11628;51.072;3.712;2022-07-17T01:25:04;18.70;87.30
22925;DHT22;11628;51.072;3.712;2022-07-17T01:27:30;18.60;87.80
22925;DHT22;11628;51.072;3.712;2022-07-17T01:29:57;18.60;88.00
22925;DHT22;11628;51.072;3.712;2022-07-17T01:32:31;18.50;88.10
22925;DHT22;11628;51.072;3.712;2022-07-17T01:34:57;18.50;88.50
22925;DHT22;11628;51.072;3.712;2022-07-17T01:37:23;18.50;88.90
22925;DHT22;11628;51.072;3.712;2022-07-17T01:39:48;18.50;89.20
22925;DHT22;11628;51.072;3.712;2022-07-17T01:42:25;18.40;89.50
22925;DHT22;11628;51.072;3.712;2022-07-17T01:44:52;18.30;89.80
22925;DHT22;11628;51.072;3.712;2022-07-17T01:47:18;18.30;90.00
22925;DHT22;11628;51.072;3.712;2022-07-17T01:49:50;18.20;90.10
22925;DHT22;11628;51.072;3.712;2022-07-17T01:52:16;18.10;90.20
22925;DHT22;11628;51.072;3.712;2022-07-17T01:54:42;18.10;90.40
22925;DHT22;11628;51.072;3.712;2022-07-17T01:57:10;18.00;90.50
22925;DHT22;11628;51.072;3.712;2022-07-17T01:59:36;18.00;91.00
22925;DHT22;11628;51.072;3.712;2022-07-17T02:02:03;18.00;90.80
22925;DHT22;11628;51.072;3.712;2022-07-17T02:04:30;18.00;90.80
22925;DHT22;11628;51.072;3.712;2022-07-17T02:06:56;18.00;90.90
22925;DHT22;11628;51.072;3.712;2022-07-17T02:09:22;17.90;91.10
22925;DHT22;11628;51.072;3.712;2022-07-17T02:11:48;17.80;91.30
22925;DHT22;11628;51.072;3.712;2022-07-17T02:14:14;17.80;91.40
22925;DHT22;11628;51.072;3.712;2022-07-17T02:16:40;17.70;91.70
22925;DHT22;11628;51.072;3.712;2022-07-17T02:19:05;17.70;92.00
22925;DHT22;11628;51.072;3.712;2022-07-17T02:21:31;17.60;92.30
22925;DHT22;11628;51.072;3.712;2022-07-17T02:23:57;17.50;92.50
22925;DHT22;11628;51.072;3.712;2022-07-17T02:26:23;17.50;92.80
22925;DHT22;11628;51.072;3.712;2022-07-17T02:28:49;17.50;92.90
22925;DHT22;11628;51.072;3.712;2022-07-17T02:31:14;17.60;93.00
22925;DHT22;11628;51.072;3.712;2022-07-17T02:33:40;17.70;93.40
22925;DHT22;11628;51.072;3.712;2022-07-17T02:36:06;17.70;92.90
22925;DHT22;11628;51.072;3.712;2022-07-17T02:38:32;17.80;93.00
22925;DHT22;11628;51.072;3.712;2022-07-17T02:40:58;17.80;93.00
22925;DHT22;11628;51.072;3.712;2022-07-17T02:43:23;17.80;93.00
22925;DHT22;11628;51.072;3.712;2022-07-17T02:45:49;17.80;93.10
22925;DHT22;11628;51.072;3.712;2022-07-17T02:48:14;17.90;93.20
22925;DHT22;11628;51.072;3.712;2022-07-17T02:50:40;17.90;93.20
22925;DHT22;11628;51.072;3.712;2022-07-17T02:53:06;17.80;93.30
22925;DHT22;11628;51.072;3.712;2022-07-17T02:55:32;17.80;93.60
22925;DHT22;11628;51.072;3.712;2022-07-17T02:57:57;17.80;93.70
22925;DHT22;11628;51.072;3.712;2022-07-17T03:00:23;17.80;93.90
22925;DHT22;11628;51.072;3.712;2022-07-17T03:02:49;17.70;94.20
22925;DHT22;11628;51.072;3.712;2022-07-17T03:05:16;17.60;94.50
22925;DHT22;11628;51.072;3.712;2022-07-17T03:07:42;17.50;94.90
22925;DHT22;11628;51.072;3.712;2022-07-17T03:10:09;17.50;95.20
22925;DHT22;11628;51.072;3.712;2022-07-17T03:12:35;17.40;95.50
22925;DHT22;11628;51.072;3.712;2022-07-17T03:15:01;17.40;96.00
22925;DHT22;11628;51.072;3.712;2022-07-17T03:17:26;17.40;96.30
22925;DHT22;11628;51.072;3.712;2022-07-17T03:19:52;17.30;96.70
22925;DHT22;11628;51.072;3.712;2022-07-17T03:22:18;17.30;97.10
22925;DHT22;11628;51.072;3.712;2022-07-17T03:24:44;17.30;97.50
22925;DHT22;11628;51.072;3.712;2022-07-17T03:27:09;17.20;98.00
22925;DHT22;11628;51.072;3.712;2022-07-17T03:29:35;17.20;98.40
22925;DHT22;11628;51.072;3.712;2022-07-17T03:32:01;17.20;99.00
22925;DHT22;11628;51.072;3.712;2022-07-17T03:34:26;17.20;99.40
22925;DHT22;11628;51.072;3.712;2022-07-17T03:36:52;17.10;99.90
22925;DHT22;11628;51.072;3.712;2022-07-17T03:39:18;17.10;99.90
22925;DHT22;11628;51.072;3.712;2022-07-17T03:41:43;17.10;99.90
22925;DHT22;11628;51.072;3.712;2022-07-17T03:44:09;17.10;99.90
22925;DHT22;11628;51.072;3.712;2022-07-17T03:46:35;17.10;99.90
22925;DHT22;11628;51.072;3.712;2022-07-17T03:49:01;17.10;99.90
22925;DHT22;11628;51.072;3.712;2022-07-17T03:51:27;17.10;99.90
22925;DHT22;11628;51.072;3.712;2022-07-17T03:53:53;17.10;99.90
22925;DHT22;11628;51.072;3.712;2022-07-17T03:56:18;17.10;99.90
22925;DHT22;11628;51.072;3.712;2022-07-17T03:58:44;17.00;99.90
22925;DHT22;11628;51.072;3.712;2022-07-17T04:01:10;17.00;99.90
22925;DHT22;11628;51.072;3.712;2022-07-17T04:03:36;17.00;99.90
22925;DHT22;11628;51.072;3.712;2022-07-17T04:06:01;17.00;99.90
22925;DHT22;11628;51.072;3.712;2022-07-17T04:08:27;17.10;99.90
22925;DHT22;11628;51.072;3.712;2022-07-17T04:10:53;17.00;99.90
22925;DHT22;11628;51.072;3.712;2022-07-17T04:13:19;16.90;99.90
22925;DHT22;11628;51.072;3.712;2022-07-17T04:15:44;16.80;99.90
22925;DHT22;11628;51.072;3.712;2022-07-17T04:18:26;16.80;99.90
22925;DHT22;11628;51.072;3.712;2022-07-17T04:20:55;17.00;99.90
22925;DHT22;11628;51.072;3.712;2022-07-17T04:23:21;17.10;99.90
22925;DHT22;11628;51.072;3.712;2022-07-17T04:25:47;17.20;99.90
22925;DHT22;11628;51.072;3.712;2022-07-17T04:28:13;17.20;99.90
22925;DHT22;11628;51.072;3.712;2022-07-17T04:30:39;17.20;99.90
22925;DHT22;11628;51.072;3.712;2022-07-17T04:33:05;17.20;99.90
22925;DHT22;11628;51.072;3.712;2022-07-17T04:35:31;17.20;99.90
22925;DHT22;11628;51.072;3.712;2022-07-17T04:37:57;17.40;99.90
22925;DHT22;11628;51.072;3.712;2022-07-17T04:40:23;17.50;99.90
22925;DHT22;11628;51.072;3.712;2022-07-17T04:42:49;17.60;99.90
22925;DHT22;11628;51.072;3.712;2022-07-17T04:45:15;17.60;99.90
22925;DHT22;11628;51.072;3.712;2022-07-17T04:47:41;17.70;99.90
22925;DHT22;11628;51.072;3.712;2022-07-17T04:50:07;17.70;99.90
22925;DHT22;11628;51.072;3.712;2022-07-17T04:52:34;17.70;99.90
22925;DHT22;11628;51.072;3.712;2022-07-17T04:54:59;17.70;99.90
22925;DHT22;11628;51.072;3.712;2022-07-17T04:57:25;17.80;99.90
22925;DHT22;11628;51.072;3.712;2022-07-17T04:59:51;17.90;99.90
22925;DHT22;11628;51.072;3.712;2022-07-17T05:02:17;18.00;99.90
22925;DHT22;11628;51.072;3.712;2022-07-17T05:04:43;18.10;99.90
22925;DHT22;11628;51.072;3.712;2022-07-17T05:07:09;18.20;99.90
22925;DHT22;11628;51.072;3.712;2022-07-17T05:09:35;18.40;99.90
22925;DHT22;11628;51.072;3.712;2022-07-17T05:12:00;18.40;99.90
22925;DHT22;11628;51.072;3.712;2022-07-17T05:14:26;18.40;99.90
22925;DHT22;11628;51.072;3.712;2022-07-17T05:16:52;18.30;99.90
22925;DHT22;11628;51.072;3.712;2022-07-17T05:19:18;18.10;99.90
22925;DHT22;11628;51.072;3.712;2022-07-17T05:21:43;18.00;99.90
22925;DHT22;11628;51.072;3.712;2022-07-17T05:24:09;18.00;99.90
22925;DHT22;11628;51.072;3.712;2022-07-17T05:26:35;18.00;99.90
22925;DHT22;11628;51.072;3.712;2022-07-17T05:29:00;18.10;99.90
22925;DHT22;11628;51.072;3.712;2022-07-17T05:31:26;18.10;99.90
22925;DHT22;11628;51.072;3.712;2022-07-17T05:33:52;18.20;99.90
22925;DHT22;11628;51.072;3.712;2022-07-17T05:36:18;18.30;99.90
22925;DHT22;11628;51.072;3.712;2022-07-17T05:38:43;18.50;99.90
22925;DHT22;11628;51.072;3.712;2022-07-17T05:41:09;18.50;99.90
22925;DHT22;11628;51.072;3.712;2022-07-17T05:43:35;18.40;99.90
22925;DHT22;11628;51.072;3.712;2022-07-17T05:46:01;18.30;99.90
22925;DHT22;11628;51.072;3.712;2022-07-17T05:48:29;18.40;99.90
22925;DHT22;11628;51.072;3.712;2022-07-17T05:50:55;18.50;99.90
22925;DHT22;11628;51.072;3.712;2022-07-17T05:53:21;18.50;99.90
22925;DHT22;11628;51.072;3.712;2022-07-17T05:55:46;18.70;99.90
22925;DHT22;11628;51.072;3.712;2022-07-17T05:58:12;18.80;99.90
22925;DHT22;11628;51.072;3.712;2022-07-17T06:00:38;18.90;99.90
22925;DHT22;11628;51.072;3.712;2022-07-17T06:03:04;19.00;99.90
22925;DHT22;11628;51.072;3.712;2022-07-17T06:05:29;19.10;99.90
22925;DHT22;11628;51.072;3.712;2022-07-17T06:07:56;19.30;99.90
22925;DHT22;11628;51.072;3.712;2022-07-17T06:10:23;19.50;99.90
22925;DHT22;11628;51.072;3.712;2022-07-17T06:12:49;19.60;99.90
22925;DHT22;11628;51.072;3.712;2022-07-17T06:15:15;19.50;99.90
22925;DHT22;11628;51.072;3.712;2022-07-17T06:17:41;19.60;99.90
22925;DHT22;11628;51.072;3.712;2022-07-17T06:20:07;19.50;99.90
22925;DHT22;11628;51.072;3.712;2022-07-17T06:22:34;19.40;99.90
22925;DHT22;11628;51.072;3.712;2022-07-17T06:24:59;19.30;99.90
22925;DHT22;11628;51.072;3.712;2022-07-17T06:27:25;19.40;99.90
22925;DHT22;11628;51.072;3.712;2022-07-17T06:29:51;19.70;99.90
22925;DHT22;11628;51.072;3.712;2022-07-17T06:32:17;20.00;98.60
22925;DHT22;11628;51.072;3.712;2022-07-17T06:34:43;20.20;97.40
22925;DHT22;11628;51.072;3.712;2022-07-17T06:37:09;20.40;96.60
22925;DHT22;11628;51.072;3.712;2022-07-17T06:39:34;20.20;96.30
22925;DHT22;11628;51.072;3.712;2022-07-17T06:42:00;19.90;97.20
22925;DHT22;11628;51.072;3.712;2022-07-17T06:44:26;19.90;97.30
22925;DHT22;11628;51.072;3.712;2022-07-17T06:46:51;20.00;97.00
22925;DHT22;11628;51.072;3.712;2022-07-17T06:49:17;20.30;96.70
22925;DHT22;11628;51.072;3.712;2022-07-17T06:51:43;20.50;95.70
22925;DHT22;11628;51.072;3.712;2022-07-17T06:54:11;20.90;94.60
22925;DHT22;11628;51.072;3.712;2022-07-17T06:56:37;21.00;94.30
22925;DHT22;11628;51.072;3.712;2022-07-17T06:59:03;21.00;94.00
22925;DHT22;11628;51.072;3.712;2022-07-17T07:01:33;21.00;93.50
22925;DHT22;11628;51.072;3.712;2022-07-17T07:03:59;20.90;93.70
22925;DHT22;11628;51.072;3.712;2022-07-17T07:06:25;21.00;93.90
22925;DHT22;11628;51.072;3.712;2022-07-17T07:08:51;21.30;93.30
22925;DHT22;11628;51.072;3.712;2022-07-17T07:11:17;21.40;92.70
22925;DHT22;11628;51.072;3.712;2022-07-17T07:13:43;21.50;92.40
22925;DHT22;11628;51.072;3.712;2022-07-17T07:16:08;21.70;92.00
22925;DHT22;11628;51.072;3.712;2022-07-17T07:18:34;21.90;91.30
22925;DHT22;11628;51.072;3.712;2022-07-17T07:21:00;21.80;91.10
22925;DHT22;11628;51.072;3.712;2022-07-17T07:23:25;21.80;91.40
22925;DHT22;11628;51.072;3.712;2022-07-17T07:25:51;22.00;90.70
22925;DHT22;11628;51.072;3.712;2022-07-17T07:28:17;22.10;90.40
22925;DHT22;11628;51.072;3.712;2022-07-17T07:30:42;22.20;90.00
22925;DHT22;11628;51.072;3.712;2022-07-17T07:33:08;22.20;88.70
22925;DHT22;11628;51.072;3.712;2022-07-17T07:35:34;22.30;88.60
22925;DHT22;11628;51.072;3.712;2022-07-17T07:37:59;22.20;89.00
22925;DHT22;11628;51.072;3.712;2022-07-17T07:40:25;22.30;88.10
22925;DHT22;11628;51.072;3.712;2022-07-17T07:42:51;22.20;88.50
22925;DHT22;11628;51.072;3.712;2022-07-17T07:45:17;22.40;88.70
22925;DHT22;11628;51.072;3.712;2022-07-17T07:47:48;22.80;86.50
22925;DHT22;11628;51.072;3.712;2022-07-17T07:50:16;23.20;84.00
22925;DHT22;11628;51.072;3.712;2022-07-17T07:52:42;23.30;83.30
22925;DHT22;11628;51.072;3.712;2022-07-17T07:55:12;22.60;84.80
22925;DHT22;11628;51.072;3.712;2022-07-17T07:57:37;22.80;85.40
22925;DHT22;11628;51.072;3.712;2022-07-17T08:00:05;23.10;83.40
22925;DHT22;11628;51.072;3.712;2022-07-17T08:02:31;23.30;82.90
22925;DHT22;11628;51.072;3.712;2022-07-17T08:04:57;23.10;82.70
22925;DHT22;11628;51.072;3.712;2022-07-17T08:07:25;23.20;82.30
22925;DHT22;11628;51.072;3.712;2022-07-17T08:09:52;23.50;81.10
22925;DHT22;11628;51.072;3.712;2022-07-17T08:12:17;23.60;80.90
22925;DHT22;11628;51.072;3.712;2022-07-17T08:14:43;23.50;79.80
22925;DHT22;11628;51.072;3.712;2022-07-17T08:17:09;23.40;80.50
22925;DHT22;11628;51.072;3.712;2022-07-17T08:19:34;23.60;79.60
22925;DHT22;11628;51.072;3.712;2022-07-17T08:22:00;23.50;79.80
22925;DHT22;11628;51.072;3.712;2022-07-17T08:24:26;23.80;78.20
22925;DHT22;11628;51.072;3.712;2022-07-17T08:26:52;24.10;77.60
22925;DHT22;11628;51.072;3.712;2022-07-17T08:29:18;23.60;79.00
22925;DHT22;11628;51.072;3.712;2022-07-17T08:31:44;23.90;79.70
22925;DHT22;11628;51.072;3.712;2022-07-17T08:34:10;23.90;78.70
22925;DHT22;11628;51.072;3.712;2022-07-17T08:36:35;24.10;77.60
22925;DHT22;11628;51.072;3.712;2022-07-17T08:39:02;25.00;76.30
22925;DHT22;11628;51.072;3.712;2022-07-17T08:41:29;25.40;74.20
22925;DHT22;11628;51.072;3.712;2022-07-17T08:43:55;26.00;73.00
22925;DHT22;11628;51.072;3.712;2022-07-17T08:46:26;25.60;73.50
22925;DHT22;11628;51.072;3.712;2022-07-17T08:48:58;25.40;73.20
22925;DHT22;11628;51.072;3.712;2022-07-17T08:51:28;25.70;73.50
22925;DHT22;11628;51.072;3.712;2022-07-17T08:53:54;25.40;72.60
22925;DHT22;11628;51.072;3.712;2022-07-17T08:56:20;26.20;71.60
22925;DHT22;11628;51.072;3.712;2022-07-17T08:58:47;27.10;69.00
22925;DHT22;11628;51.072;3.712;2022-07-17T09:01:14;28.10;67.30
22925;DHT22;11628;51.072;3.712;2022-07-17T09:03:40;27.60;66.20
22925;DHT22;11628;51.072;3.712;2022-07-17T09:06:20;26.90;68.10
22925;DHT22;11628;51.072;3.712;2022-07-17T09:08:46;26.90;68.70
22925;DHT22;11628;51.072;3.712;2022-07-17T09:11:12;26.80;68.20
22925;DHT22;11628;51.072;3.712;2022-07-17T09:13:37;27.20;67.50
22925;DHT22;11628;51.072;3.712;2022-07-17T09:16:10;27.30;66.60
22925;DHT22;11628;51.072;3.712;2022-07-17T09:18:50;27.40;67.00
22925;DHT22;11628;51.072;3.712;2022-07-17T09:21:19;27.40;66.70
22925;DHT22;11628;51.072;3.712;2022-07-17T09:23:45;29.80;62.80
22925;DHT22;11628;51.072;3.712;2022-07-17T09:26:11;33.30;55.70
22925;DHT22;11628;51.072;3.712;2022-07-17T09:28:47;35.70;52.70
22925;DHT22;11628;51.072;3.712;2022-07-17T09:31:13;38.20;49.50
22925;DHT22;11628;51.072;3.712;2022-07-17T09:33:49;39.50;47.60
22925;DHT22;11628;51.072;3.712;2022-07-17T09:36:14;40.20;45.10
22925;DHT22;11628;51.072;3.712;2022-07-17T09:38:41;41.40;44.00
22925;DHT22;11628;51.072;3.712;2022-07-17T09:41:15;41.50;43.70
22925;DHT22;11628;51.072;3.712;2022-07-17T09:46:20;43.00;42.10
22925;DHT22;11628;51.072;3.712;2022-07-17T09:48:49;43.40;42.00
22925;DHT22;11628;51.072;3.712;2022-07-17T09:51:17;44.00;41.00
22925;DHT22;11628;51.072;3.712;2022-07-17T09:53:45;44.10;41.20
22925;DHT22;11628;51.072;3.712;2022-07-17T09:56:15;44.70;40.10
22925;DHT22;11628;51.072;3.712;2022-07-17T09:58:45;44.90;39.60
22925;DHT22;11628;51.072;3.712;2022-07-17T10:01:13;45.50;39.50
22925;DHT22;11628;51.072;3.712;2022-07-17T10:03:39;46.90;38.30
22925;DHT22;11628;51.072;3.712;2022-07-17T10:06:05;46.60;37.90
22925;DHT22;11628;51.072;3.712;2022-07-17T10:08:31;46.80;37.90
22925;DHT22;11628;51.072;3.712;2022-07-17T10:10:57;48.30;36.80
22925;DHT22;11628;51.072;3.712;2022-07-17T10:13:24;49.10;36.20
22925;DHT22;11628;51.072;3.712;2022-07-17T10:15:50;49.80;35.60
22925;DHT22;11628;51.072;3.712;2022-07-17T10:18:16;50.00;35.20
22925;DHT22;11628;51.072;3.712;2022-07-17T10:20:42;49.40;35.40
22925;DHT22;11628;51.072;3.712;2022-07-17T10:23:14;50.10;34.40
22925;DHT22;11628;51.072;3.712;2022-07-17T10:25:40;50.40;34.30
22925;DHT22;11628;51.072;3.712;2022-07-17T10:28:06;49.50;35.00
22925;DHT22;11628;51.072;3.712;2022-07-17T10:30:33;49.90;35.00
22925;DHT22;11628;51.072;3.712;2022-07-17T10:33:01;50.20;35.00
22925;DHT22;11628;51.072;3.712;2022-07-17T10:35:47;50.70;34.20
22925;DHT22;11628;51.072;3.712;2022-07-17T10:38:14;51.50;33.90
22925;DHT22;11628;51.072;3.712;2022-07-17T10:40:41;50.20;34.30
22925;DHT22;11628;51.072;3.712;2022-07-17T10:43:08;49.30;35.10
22925;DHT22;11628;51.072;3.712;2022-07-17T10:48:16;50.30;34.00
22925;DHT22;11628;51.072;3.712;2022-07-17T10:50:44;50.40;33.20
22925;DHT22;11628;51.072;3.712;2022-07-17T10:55:44;51.10;33.30
22925;DHT22;11628;51.072;3.712;2022-07-17T11:03:40;50.50;33.90
22925;DHT22;11628;51.072;3.712;2022-07-17T11:06:25;50.00;33.80
22925;DHT22;11628;51.072;3.712;2022-07-17T11:08:57;50.90;33.00
22925;DHT22;11628;51.072;3.712;2022-07-17T11:11:33;51.00;32.90
22925;DHT22;11628;51.072;3.712;2022-07-17T11:16:42;50.60;33.30
22925;DHT22;11628;51.072;3.712;2022-07-17T11:19:09;51.30;32.50
22925;DHT22;11628;51.072;3.712;2022-07-17T11:21:45;51.80;32.50
22925;DHT22;11628;51.072;3.712;2022-07-17T11:24:11;52.10;32.30
22925;DHT22;11628;51.072;3.712;2022-07-17T11:26:37;48.10;33.50
22925;DHT22;11628;51.072;3.712;2022-07-17T11:29:03;47.60;34.70
22925;DHT22;11628;51.072;3.712;2022-07-17T11:31:29;48.30;34.50
22925;DHT22;11628;51.072;3.712;2022-07-17T11:34:01;48.70;33.80
22925;DHT22;11628;51.072;3.712;2022-07-17T11:36:34;48.70;34.30
22925;DHT22;11628;51.072;3.712;2022-07-17T11:39:07;49.20;34.20
22925;DHT22;11628;51.072;3.712;2022-07-17T11:41:38;48.20;34.80
22925;DHT22;11628;51.072;3.712;2022-07-17T11:44:07;48.70;34.90
22925;DHT22;11628;51.072;3.712;2022-07-17T11:46:35;50.10;34.00
22925;DHT22;11628;51.072;3.712;2022-07-17T11:49:02;51.00;33.50
22925;DHT22;11628;51.072;3.712;2022-07-17T11:51:42;50.90;33.10
22925;DHT22;11628;51.072;3.712;2022-07-17T11:54:13;51.70;32.90
22925;DHT22;11628;51.072;3.712;2022-07-17T11:56:40;51.60;32.40
22925;DHT22;11628;51.072;3.712;2022-07-17T11:59:07;51.70;32.30
22925;DHT22;11628;51.072;3.712;2022-07-17T12:01:44;50.80;32.80
22925;DHT22;11628;51.072;3.712;2022-07-17T12:04:12;49.40;33.70
22925;DHT22;11628;51.072;3.712;2022-07-17T12:06:38;49.40;33.30
22925;DHT22;11628;51.072;3.712;2022-07-17T12:09:05;50.20;32.20
22925;DHT22;11628;51.072;3.712;2022-07-17T12:11:31;50.60;32.30
22925;DHT22;11628;51.072;3.712;2022-07-17T12:14:04;50.40;32.60
22925;DHT22;11628;51.072;3.712;2022-07-17T12:16:34;50.50;32.90
22925;DHT22;11628;51.072;3.712;2022-07-17T12:19:15;50.40;32.70
22925;DHT22;11628;51.072;3.712;2022-07-17T12:24:39;50.00;32.50
22925;DHT22;11628;51.072;3.712;2022-07-17T12:27:07;50.20;32.60
22925;DHT22;11628;51.072;3.712;2022-07-17T12:29:33;50.10;32.10
22925;DHT22;11628;51.072;3.712;2022-07-17T12:32:03;50.10;33.30
22925;DHT22;11628;51.072;3.712;2022-07-17T12:34:29;50.40;31.80
22925;DHT22;11628;51.072;3.712;2022-07-17T12:36:55;50.80;32.00
22925;DHT22;11628;51.072;3.712;2022-07-17T12:39:21;50.40;31.70
22925;DHT22;11628;51.072;3.712;2022-07-17T12:41:46;50.50;31.50
22925;DHT22;11628;51.072;3.712;2022-07-17T12:44:12;51.10;30.80
22925;DHT22;11628;51.072;3.712;2022-07-17T12:46:38;50.10;31.30
22925;DHT22;11628;51.072;3.712;2022-07-17T12:49:03;48.50;32.50
22925;DHT22;11628;51.072;3.712;2022-07-17T12:51:29;49.00;32.10
22925;DHT22;11628;51.072;3.712;2022-07-17T12:53:56;49.50;31.80
22925;DHT22;11628;51.072;3.712;2022-07-17T12:56:23;49.90;32.00
22925;DHT22;11628;51.072;3.712;2022-07-17T12:58:49;48.60;32.30
22925;DHT22;11628;51.072;3.712;2022-07-17T13:01:15;48.90;32.40
22925;DHT22;11628;51.072;3.712;2022-07-17T13:03:41;48.80;32.20
22925;DHT22;11628;51.072;3.712;2022-07-17T13:06:07;48.10;32.50
22925;DHT22;11628;51.072;3.712;2022-07-17T13:08:34;48.60;32.40
22925;DHT22;11628;51.072;3.712;2022-07-17T13:11:00;49.10;31.80
22925;DHT22;11628;51.072;3.712;2022-07-17T13:13:27;49.40;31.80
22925;DHT22;11628;51.072;3.712;2022-07-17T13:15:54;49.80;31.00
22925;DHT22;11628;51.072;3.712;2022-07-17T13:18:20;49.40;30.60
22925;DHT22;11628;51.072;3.712;2022-07-17T13:20:45;48.90;30.80
22925;DHT22;11628;51.072;3.712;2022-07-17T13:23:11;49.40;31.00
22925;DHT22;11628;51.072;3.712;2022-07-17T13:25:38;50.10;30.90
22925;DHT22;11628;51.072;3.712;2022-07-17T13:28:04;50.10;31.10
22925;DHT22;11628;51.072;3.712;2022-07-17T13:30:30;49.20;31.60
22925;DHT22;11628;51.072;3.712;2022-07-17T13:32:58;49.40;31.80
22925;DHT22;11628;51.072;3.712;2022-07-17T13:35:25;49.20;32.40
22925;DHT22;11628;51.072;3.712;2022-07-17T13:37:51;49.00;31.70
22925;DHT22;11628;51.072;3.712;2022-07-17T13:40:17;49.00;31.50
22925;DHT22;11628;51.072;3.712;2022-07-17T13:42:45;48.50;31.60
22925;DHT22;11628;51.072;3.712;2022-07-17T13:45:11;48.40;31.80
22925;DHT22;11628;51.072;3.712;2022-07-17T13:47:37;48.30;32.10
22925;DHT22;11628;51.072;3.712;2022-07-17T13:50:04;47.60;32.50
22925;DHT22;11628;51.072;3.712;2022-07-17T13:52:30;46.90;32.90
22925;DHT22;11628;51.072;3.712;2022-07-17T13:54:56;47.10;33.10
22925;DHT22;11628;51.072;3.712;2022-07-17T13:57:22;47.10;33.10
22925;DHT22;11628;51.072;3.712;2022-07-17T13:59:48;47.30;32.60
22925;DHT22;11628;51.072;3.712;2022-07-17T14:02:14;46.90;32.70
22925;DHT22;11628;51.072;3.712;2022-07-17T14:04:39;46.60;33.00
22925;DHT22;11628;51.072;3.712;2022-07-17T14:07:06;46.40;33.40
22925;DHT22;11628;51.072;3.712;2022-07-17T14:09:32;46.10;33.50
22925;DHT22;11628;51.072;3.712;2022-07-17T14:11:57;46.00;34.30
22925;DHT22;11628;51.072;3.712;2022-07-17T14:14:23;45.60;35.10
22925;DHT22;11628;51.072;3.712;2022-07-17T14:16:49;45.70;35.10
22925;DHT22;11628;51.072;3.712;2022-07-17T14:19:14;45.40;35.00
22925;DHT22;11628;51.072;3.712;2022-07-17T14:21:40;44.10;35.40
22925;DHT22;11628;51.072;3.712;2022-07-17T14:24:07;44.20;35.60
22925;DHT22;11628;51.072;3.712;2022-07-17T14:26:33;44.70;34.70
22925;DHT22;11628;51.072;3.712;2022-07-17T14:28:59;44.80;34.60
22925;DHT22;11628;51.072;3.712;2022-07-17T14:31:25;44.30;35.30
22925;DHT22;11628;51.072;3.712;2022-07-17T14:33:51;44.20;35.20
22925;DHT22;11628;51.072;3.712;2022-07-17T14:36:17;43.70;36.00
22925;DHT22;11628;51.072;3.712;2022-07-17T14:38:43;44.20;36.20
22925;DHT22;11628;51.072;3.712;2022-07-17T14:41:09;43.90;35.40
22925;DHT22;11628;51.072;3.712;2022-07-17T14:43:34;43.90;35.80
22925;DHT22;11628;51.072;3.712;2022-07-17T14:46:00;44.00;35.30
22925;DHT22;11628;51.072;3.712;2022-07-17T14:48:26;43.60;35.40
22925;DHT22;11628;51.072;3.712;2022-07-17T14:50:52;43.50;35.50
22925;DHT22;11628;51.072;3.712;2022-07-17T14:53:17;43.30;36.30
22925;DHT22;11628;51.072;3.712;2022-07-17T14:55:43;43.00;37.00
22925;DHT22;11628;51.072;3.712;2022-07-17T14:58:09;42.60;37.10
22925;DHT22;11628;51.072;3.712;2022-07-17T15:00:34;42.50;37.40
22925;DHT22;11628;51.072;3.712;2022-07-17T15:03:00;42.60;37.10
22925;DHT22;11628;51.072;3.712;2022-07-17T15:05:26;42.60;36.80
22925;DHT22;11628;51.072;3.712;2022-07-17T15:07:52;42.10;37.10
22925;DHT22;11628;51.072;3.712;2022-07-17T15:10:17;41.90;37.10
22925;DHT22;11628;51.072;3.712;2022-07-17T15:12:43;41.20;36.90
22925;DHT22;11628;51.072;3.712;2022-07-17T15:15:09;40.50;37.00
22925;DHT22;11628;51.072;3.712;2022-07-17T15:17:35;38.70;38.30
22925;DHT22;11628;51.072;3.712;2022-07-17T15:20:01;39.30;38.10
22925;DHT22;11628;51.072;3.712;2022-07-17T15:22:26;40.20;37.50
22925;DHT22;11628;51.072;3.712;2022-07-17T15:24:52;40.60;36.90
22925;DHT22;11628;51.072;3.712;2022-07-17T15:27:18;40.60;36.60
22925;DHT22;11628;51.072;3.712;2022-07-17T15:29:43;40.10;37.40
22925;DHT22;11628;51.072;3.712;2022-07-17T15:32:09;40.00;38.00
22925;DHT22;11628;51.072;3.712;2022-07-17T15:34:35;39.90;38.90
22925;DHT22;11628;51.072;3.712;2022-07-17T15:37:03;39.60;39.40
22925;DHT22;11628;51.072;3.712;2022-07-17T15:39:29;39.90;39.00
22925;DHT22;11628;51.072;3.712;2022-07-17T15:41:54;39.50;38.70
22925;DHT22;11628;51.072;3.712;2022-07-17T15:44:21;39.30;38.30
22925;DHT22;11628;51.072;3.712;2022-07-17T15:46:46;39.20;38.30